sensor_id;sensor_type;location;lat;lon;timestamp;pressure;altitude;pressure_sealevel;temperature;humidity
71764;BME280;59602;52.142;5.408;2022-08-19T00:01:40;101513.19;;;18.96;81.44
71764;BME280;59602;52.142;5.408;2022-08-19T00:04:10;101524.63;;;18.94;81.22
71764;BME280;59602;52.142;5.408;2022-08-19T00:06:39;101519.13;;;18.94;81.71
71764;BME280;59602;52.142;5.408;2022-08-19T00:09:08;101510.13;;;18.90;81.69
71764;BME280;59602;52.142;5.408;2022-08-19T00:11:35;101521.56;;;18.88;81.64
71764;BME280;59602;52.142;5.408;2022-08-19T00:14:05;101525.91;;;18.90;81.34
71764;BME280;59602;52.142;5.408;2022-08-19T00:16:32;101527.06;;;18.88;81.37
71764;BME280;59602;52.142;5.408;2022-08-19T00:18:59;101529.84;;;18.88;81.53
71764;BME280;59602;52.142;5.408;2022-08-19T00:21:26;101520.44;;;18.86;81.03
71764;BME280;59602;52.142;5.408;2022-08-19T00:23:54;101525.22;;;18.82;81.48
71764;BME280;59602;52.142;5.408;2022-08-19T00:26:21;101523.72;;;18.77;81.18
71764;BME280;59602;52.142;5.408;2022-08-19T00:28:47;101524.91;;;18.76;81.21
71764;BME280;59602;52.142;5.408;2022-08-19T00:31:14;101517.50;;;18.73;81.27
71764;BME280;59602;52.142;5.408;2022-08-19T00:33:41;101519.88;;;18.71;81.21
71764;BME280;59602;52.142;5.408;2022-08-19T00:36:09;101517.91;;;18.72;81.45
71764;BME280;59602;52.142;5.408;2022-08-19T00:38:37;101521.78;;;18.74;81.53
71764;BME280;59602;52.142;5.408;2022-08-19T00:41:05;101515.91;;;18.72;81.09
71764;BME280;59602;52.142;5.408;2022-08-19T00:43:32;101511.66;;;18.67;81.27
71764;BME280;59602;52.142;5.408;2022-08-19T00:45:59;101515.69;;;18.63;81.17
71764;BME280;59602;52.142;5.408;2022-08-19T00:48:26;101518.84;;;18.61;80.83
71764;BME280;59602;52.142;5.408;2022-08-19T00:50:53;101514.19;;;18.58;81.10
71764;BME280;59602;52.142;5.408;2022-08-19T00:53:23;101517.31;;;18.60;81.61
71764;BME280;59602;52.142;5.408;2022-08-19T00:55:53;101509.81;;;18.61;81.56
71764;BME280;59602;52.142;5.408;2022-08-19T00:58:23;101521.25;;;18.59;81.35
71764;BME280;59602;52.142;5.408;2022-08-19T01:00:50;101514.59;;;18.57;81.44
71764;BME280;59602;52.142;5.408;2022-08-19T01:03:19;101512.69;;;18.54;81.03
71764;BME280;59602;52.142;5.408;2022-08-19T01:05:47;101509.16;;;18.53;81.43
71764;BME280;59602;52.142;5.408;2022-08-19T01:08:16;101517.41;;;18.53;81.62
71764;BME280;59602;52.142;5.408;2022-08-19T01:10:47;101510.34;;;18.52;81.38
71764;BME280;59602;52.142;5.408;2022-08-19T01:13:17;101516.69;;;18.49;81.39
71764;BME280;59602;52.142;5.408;2022-08-19T01:15:48;101512.38;;;18.48;81.29
71764;BME280;59602;52.142;5.408;2022-08-19T01:18:18;101509.72;;;18.41;81.13
71764;BME280;59602;52.142;5.408;2022-08-19T01:20:46;101513.75;;;18.36;81.51
71764;BME280;59602;52.142;5.408;2022-08-19T01:23:14;101511.38;;;18.35;81.47
71764;BME280;59602;52.142;5.408;2022-08-19T01:25:48;101509.06;;;18.33;81.16
71764;BME280;59602;52.142;5.408;2022-08-19T01:28:22;101509.88;;;18.30;81.00
71764;BME280;59602;52.142;5.408;2022-08-19T01:31:12;101505.59;;;18.29;81.15
71764;BME280;59602;52.142;5.408;2022-08-19T01:33:55;101504.03;;;18.28;81.39
71764;BME280;59602;52.142;5.408;2022-08-19T01:36:26;101509.97;;;18.27;81.59
71764;BME280;59602;52.142;5.408;2022-08-19T01:38:54;101515.09;;;18.24;81.46
71764;BME280;59602;52.142;5.408;2022-08-19T01:41:21;101506.88;;;18.21;81.46
71764;BME280;59602;52.142;5.408;2022-08-19T01:43:50;101516.34;;;18.20;81.31
71764;BME280;59602;52.142;5.408;2022-08-19T01:46:37;101514.78;;;18.19;81.13
71764;BME280;59602;52.142;5.408;2022-08-19T01:49:06;101504.59;;;18.16;81.24
71764;BME280;59602;52.142;5.408;2022-08-19T01:51:34;101510.94;;;18.13;80.94
71764;BME280;59602;52.142;5.408;2022-08-19T01:54:06;101505.09;;;18.11;81.13
71764;BME280;59602;52.142;5.408;2022-08-19T01:56:33;101507.09;;;18.07;81.37
71764;BME280;59602;52.142;5.408;2022-08-19T01:59:03;101516.16;;;18.03;81.58
71764;BME280;59602;52.142;5.408;2022-08-19T02:01:31;101514.63;;;18.02;81.56
71764;BME280;59602;52.142;5.408;2022-08-19T02:03:59;101507.53;;;18.01;81.60
71764;BME280;59602;52.142;5.408;2022-08-19T02:06:28;101521.31;;;18.01;81.67
71764;BME280;59602;52.142;5.408;2022-08-19T02:08:55;101514.25;;;18.00;81.16
71764;BME280;59602;52.142;5.408;2022-08-19T02:11:27;101515.88;;;17.98;81.40
71764;BME280;59602;52.142;5.408;2022-08-19T02:13:55;101519.44;;;17.95;81.27
71764;BME280;59602;52.142;5.408;2022-08-19T02:16:22;101512.78;;;17.92;81.34
71764;BME280;59602;52.142;5.408;2022-08-19T02:18:48;101520.28;;;17.92;81.33
71764;BME280;59602;52.142;5.408;2022-08-19T02:21:18;101526.19;;;17.90;81.12
71764;BME280;59602;52.142;5.408;2022-08-19T02:23:46;101516.38;;;17.89;81.24
71764;BME280;59602;52.142;5.408;2022-08-19T02:26:12;101523.06;;;17.88;81.33
71764;BME280;59602;52.142;5.408;2022-08-19T02:28:40;101522.72;;;17.86;81.73
71764;BME280;59602;52.142;5.408;2022-08-19T02:31:10;101525.88;;;17.84;81.59
71764;BME280;59602;52.142;5.408;2022-08-19T02:33:36;101525.50;;;17.82;81.41
71764;BME280;59602;52.142;5.408;2022-08-19T02:36:04;101527.47;;;17.82;81.61
71764;BME280;59602;52.142;5.408;2022-08-19T02:38:31;101533.34;;;17.80;81.18
71764;BME280;59602;52.142;5.408;2022-08-19T02:41:01;101538.53;;;17.75;80.80
71764;BME280;59602;52.142;5.408;2022-08-19T02:43:30;101538.94;;;17.73;81.19
71764;BME280;59602;52.142;5.408;2022-08-19T02:46:00;101546.78;;;17.75;81.38
71764;BME280;59602;52.142;5.408;2022-08-19T02:48:26;101554.25;;;17.74;81.10
71764;BME280;59602;52.142;5.408;2022-08-19T02:50:53;101537.81;;;17.71;80.92
71764;BME280;59602;52.142;5.408;2022-08-19T02:53:23;101529.63;;;17.63;80.97
71764;BME280;59602;52.142;5.408;2022-08-19T02:55:51;101534.41;;;17.59;80.71
71764;BME280;59602;52.142;5.408;2022-08-19T02:58:18;101532.06;;;17.58;81.00
71764;BME280;59602;52.142;5.408;2022-08-19T03:00:48;101535.63;;;17.55;80.93
71764;BME280;59602;52.142;5.408;2022-08-19T03:03:16;101538.00;;;17.53;80.95
71764;BME280;59602;52.142;5.408;2022-08-19T03:05:43;101541.53;;;17.53;81.22
71764;BME280;59602;52.142;5.408;2022-08-19T03:08:21;101543.50;;;17.53;80.84
71764;BME280;59602;52.142;5.408;2022-08-19T03:10:48;101536.44;;;17.52;80.97
71764;BME280;59602;52.142;5.408;2022-08-19T03:13:17;101528.59;;;17.50;81.20
71764;BME280;59602;52.142;5.408;2022-08-19T03:15:46;101534.09;;;17.50;81.02
71764;BME280;59602;52.142;5.408;2022-08-19T03:18:14;101523.53;;;17.49;81.14
71764;BME280;59602;52.142;5.408;2022-08-19T03:20:44;101528.25;;;17.48;81.06
71764;BME280;59602;52.142;5.408;2022-08-19T03:23:12;101520.41;;;17.47;80.93
71764;BME280;59602;52.142;5.408;2022-08-19T03:25:41;101520.81;;;17.45;81.06
71764;BME280;59602;52.142;5.408;2022-08-19T03:28:11;101517.75;;;17.39;80.82
71764;BME280;59602;52.142;5.408;2022-08-19T03:30:40;101512.28;;;17.36;81.03
71764;BME280;59602;52.142;5.408;2022-08-19T03:33:10;101508.31;;;17.37;80.93
71764;BME280;59602;52.142;5.408;2022-08-19T03:35:43;101520.50;;;17.36;81.74
71764;BME280;59602;52.142;5.408;2022-08-19T03:38:11;101517.38;;;17.37;81.64
71764;BME280;59602;52.142;5.408;2022-08-19T03:40:37;101519.31;;;17.37;81.50
71764;BME280;59602;52.142;5.408;2022-08-19T03:43:04;101518.53;;;17.36;81.86
71764;BME280;59602;52.142;5.408;2022-08-19T03:45:31;101523.25;;;17.36;81.72
71764;BME280;59602;52.142;5.408;2022-08-19T03:47:58;101526.41;;;17.34;81.60
71764;BME280;59602;52.142;5.408;2022-08-19T03:50:24;101520.16;;;17.30;81.04
71764;BME280;59602;52.142;5.408;2022-08-19T03:52:51;101517.06;;;17.28;81.43
71764;BME280;59602;52.142;5.408;2022-08-19T03:55:18;101519.78;;;17.32;81.81
71764;BME280;59602;52.142;5.408;2022-08-19T03:57:45;101516.66;;;17.30;81.31
71764;BME280;59602;52.142;5.408;2022-08-19T04:00:12;101510.78;;;17.28;81.51
71764;BME280;59602;52.142;5.408;2022-08-19T04:02:40;101511.97;;;17.27;81.48
71764;BME280;59602;52.142;5.408;2022-08-19T04:05:21;101512.38;;;17.25;81.62
71764;BME280;59602;52.142;5.408;2022-08-19T04:07:53;101523.34;;;17.29;81.90
71764;BME280;59602;52.142;5.408;2022-08-19T04:10:20;101521.75;;;17.31;81.64
71764;BME280;59602;52.142;5.408;2022-08-19T04:12:46;101509.97;;;17.31;81.68
71764;BME280;59602;52.142;5.408;2022-08-19T04:15:14;101509.22;;;17.27;81.34
71764;BME280;59602;52.142;5.408;2022-08-19T04:17:41;101497.50;;;17.22;81.17
71764;BME280;59602;52.142;5.408;2022-08-19T04:20:08;101499.88;;;17.20;81.21
71764;BME280;59602;52.142;5.408;2022-08-19T04:22:34;101504.63;;;17.16;81.58
71764;BME280;59602;52.142;5.408;2022-08-19T04:25:01;101509.38;;;17.12;80.84
71764;BME280;59602;52.142;5.408;2022-08-19T04:27:27;101501.56;;;17.07;81.61
71764;BME280;59602;52.142;5.408;2022-08-19T04:29:54;101507.06;;;17.07;81.82
71764;BME280;59602;52.142;5.408;2022-08-19T04:32:21;101514.53;;;17.07;81.73
71764;BME280;59602;52.142;5.408;2022-08-19T04:34:49;101511.00;;;17.06;81.65
71764;BME280;59602;52.142;5.408;2022-08-19T04:37:35;101511.78;;;17.07;81.61
71764;BME280;59602;52.142;5.408;2022-08-19T04:40:04;101511.81;;;17.03;81.76
71764;BME280;59602;52.142;5.408;2022-08-19T04:42:50;101516.56;;;16.99;81.92
71764;BME280;59602;52.142;5.408;2022-08-19T04:45:16;101500.88;;;16.99;82.06
71764;BME280;59602;52.142;5.408;2022-08-19T04:47:43;101497.31;;;17.02;82.25
71764;BME280;59602;52.142;5.408;2022-08-19T04:50:22;101495.31;;;17.03;82.49
71764;BME280;59602;52.142;5.408;2022-08-19T04:52:51;101501.97;;;17.06;82.43
71764;BME280;59602;52.142;5.408;2022-08-19T04:55:19;101496.91;;;17.04;82.27
71764;BME280;59602;52.142;5.408;2022-08-19T04:57:45;101509.44;;;17.05;82.10
71764;BME280;59602;52.142;5.408;2022-08-19T05:00:12;101497.31;;;17.02;82.08
71764;BME280;59602;52.142;5.408;2022-08-19T05:02:40;101515.72;;;17.06;82.48
71764;BME280;59602;52.142;5.408;2022-08-19T05:05:07;101510.59;;;17.08;82.52
71764;BME280;59602;52.142;5.408;2022-08-19T05:07:34;101519.63;;;17.08;82.37
71764;BME280;59602;52.142;5.408;2022-08-19T05:10:01;101517.69;;;17.05;82.32
71764;BME280;59602;52.142;5.408;2022-08-19T05:12:28;101524.78;;;17.02;82.47
71764;BME280;59602;52.142;5.408;2022-08-19T05:14:58;101529.91;;;17.00;82.72
71764;BME280;59602;52.142;5.408;2022-08-19T05:17:26;101523.22;;;17.01;82.80
71764;BME280;59602;52.142;5.408;2022-08-19T05:19:56;101532.19;;;17.06;82.74
71764;BME280;59602;52.142;5.408;2022-08-19T05:22:44;101527.06;;;17.08;82.59
71764;BME280;59602;52.142;5.408;2022-08-19T05:25:15;101528.28;;;17.07;82.66
71764;BME280;59602;52.142;5.408;2022-08-19T05:27:44;101522.38;;;17.08;82.82
71764;BME280;59602;52.142;5.408;2022-08-19T05:30:11;101521.94;;;17.13;82.45
71764;BME280;59602;52.142;5.408;2022-08-19T05:32:39;101528.56;;;17.16;82.66
71764;BME280;59602;52.142;5.408;2022-08-19T05:35:06;101525.81;;;17.16;82.52
71764;BME280;59602;52.142;5.408;2022-08-19T05:37:32;101523.06;;;17.19;82.82
71764;BME280;59602;52.142;5.408;2022-08-19T05:39:59;101528.09;;;17.25;82.91
71764;BME280;59602;52.142;5.408;2022-08-19T05:42:26;101530.38;;;17.30;82.47
71764;BME280;59602;52.142;5.408;2022-08-19T05:44:52;101527.63;;;17.33;82.26
71764;BME280;59602;52.142;5.408;2022-08-19T05:47:20;101529.97;;;17.35;82.83
71764;BME280;59602;52.142;5.408;2022-08-19T05:49:47;101533.03;;;17.40;82.79
71764;BME280;59602;52.142;5.408;2022-08-19T05:52:17;101534.56;;;17.45;83.01
71764;BME280;59602;52.142;5.408;2022-08-19T05:54:45;101532.53;;;17.49;82.97
71764;BME280;59602;52.142;5.408;2022-08-19T05:57:18;101519.56;;;17.50;83.11
71764;BME280;59602;52.142;5.408;2022-08-19T05:59:45;101519.53;;;17.53;82.96
71764;BME280;59602;52.142;5.408;2022-08-19T06:02:14;101520.28;;;17.57;83.10
71764;BME280;59602;52.142;5.408;2022-08-19T06:04:41;101524.56;;;17.62;82.77
71764;BME280;59602;52.142;5.408;2022-08-19T06:07:09;101533.88;;;17.68;83.22
71764;BME280;59602;52.142;5.408;2022-08-19T06:09:39;101544.03;;;17.75;83.50
71764;BME280;59602;52.142;5.408;2022-08-19T06:12:08;101536.88;;;17.81;82.95
71764;BME280;59602;52.142;5.408;2022-08-19T06:14:35;101529.03;;;17.83;83.76
71764;BME280;59602;52.142;5.408;2022-08-19T06:17:05;101531.31;;;17.88;83.72
71764;BME280;59602;52.142;5.408;2022-08-19T06:19:32;101536.00;;;17.91;84.19
71764;BME280;59602;52.142;5.408;2022-08-19T06:23:06;101528.84;;;17.97;84.20
71764;BME280;59602;52.142;5.408;2022-08-19T06:25:50;101529.88;;;18.07;85.24
71764;BME280;59602;52.142;5.408;2022-08-19T06:31:44;101531.47;;;18.35;84.12
71764;BME280;59602;52.142;5.408;2022-08-19T06:34:12;101525.41;;;18.44;84.80
71764;BME280;59602;52.142;5.408;2022-08-19T06:36:41;101532.75;;;18.54;84.80
71764;BME280;59602;52.142;5.408;2022-08-19T06:39:13;101532.56;;;18.65;84.77
71764;BME280;59602;52.142;5.408;2022-08-19T06:41:42;101536.34;;;18.75;84.77
71764;BME280;59602;52.142;5.408;2022-08-19T06:44:18;101525.59;;;18.84;84.71
71764;BME280;59602;52.142;5.408;2022-08-19T06:46:46;101534.94;;;18.90;84.59
71764;BME280;59602;52.142;5.408;2022-08-19T06:49:21;101541.16;;;18.94;84.47
71764;BME280;59602;52.142;5.408;2022-08-19T06:51:48;101541.13;;;18.98;84.65
71764;BME280;59602;52.142;5.408;2022-08-19T06:54:18;101538.38;;;18.98;84.71
71764;BME280;59602;52.142;5.408;2022-08-19T06:56:46;101543.75;;;19.05;85.03
71764;BME280;59602;52.142;5.408;2022-08-19T06:59:16;101535.41;;;19.08;85.15
71764;BME280;59602;52.142;5.408;2022-08-19T07:01:46;101532.59;;;19.12;85.24
71764;BME280;59602;52.142;5.408;2022-08-19T07:04:17;101542.34;;;19.17;85.22
71764;BME280;59602;52.142;5.408;2022-08-19T07:06:46;101540.44;;;19.14;84.73
71764;BME280;59602;52.142;5.408;2022-08-19T07:09:20;101537.69;;;19.14;85.14
71764;BME280;59602;52.142;5.408;2022-08-19T07:11:50;101548.22;;;19.19;85.59
71764;BME280;59602;52.142;5.408;2022-08-19T07:14:20;101548.16;;;19.22;84.96
71764;BME280;59602;52.142;5.408;2022-08-19T07:16:49;101543.84;;;19.21;84.75
71764;BME280;59602;52.142;5.408;2022-08-19T07:19:17;101559.25;;;19.19;85.05
71764;BME280;59602;52.142;5.408;2022-08-19T07:21:47;101567.16;;;19.17;84.43
71764;BME280;59602;52.142;5.408;2022-08-19T07:24:16;101558.03;;;19.20;84.56
71764;BME280;59602;52.142;5.408;2022-08-19T07:26:43;101554.88;;;19.21;84.70
71764;BME280;59602;52.142;5.408;2022-08-19T07:29:10;101552.78;;;19.29;84.12
71764;BME280;59602;52.142;5.408;2022-08-19T07:31:38;101553.41;;;19.37;83.91
71764;BME280;59602;52.142;5.408;2022-08-19T07:34:10;101551.41;;;19.37;83.46
71764;BME280;59602;52.142;5.408;2022-08-19T07:36:40;101557.28;;;19.39;84.00
71764;BME280;59602;52.142;5.408;2022-08-19T07:39:12;101563.53;;;19.43;83.82
71764;BME280;59602;52.142;5.408;2022-08-19T07:41:39;101557.16;;;19.46;84.11
71764;BME280;59602;52.142;5.408;2022-08-19T07:44:07;101555.03;;;19.54;84.08
71764;BME280;59602;52.142;5.408;2022-08-19T07:46:37;101557.31;;;19.59;83.74
71764;BME280;59602;52.142;5.408;2022-08-19T07:49:05;101568.69;;;19.61;83.55
71764;BME280;59602;52.142;5.408;2022-08-19T07:51:33;101565.00;;;19.68;83.17
71764;BME280;59602;52.142;5.408;2022-08-19T07:54:03;101557.38;;;19.76;83.10
71764;BME280;59602;52.142;5.408;2022-08-19T07:56:30;101563.63;;;19.80;83.19
71764;BME280;59602;52.142;5.408;2022-08-19T07:58:56;101565.97;;;19.81;82.66
71764;BME280;59602;52.142;5.408;2022-08-19T08:01:25;101581.66;;;19.84;82.55
71764;BME280;59602;52.142;5.408;2022-08-19T08:03:54;101572.25;;;19.82;82.48
71764;BME280;59602;52.142;5.408;2022-08-19T08:06:41;101568.66;;;19.85;81.98
71764;BME280;59602;52.142;5.408;2022-08-19T08:09:31;101581.19;;;19.89;81.66
71764;BME280;59602;52.142;5.408;2022-08-19T08:12:01;101584.19;;;19.95;82.34
71764;BME280;59602;52.142;5.408;2022-08-19T08:14:52;101587.72;;;19.96;80.92
71764;BME280;59602;52.142;5.408;2022-08-19T08:17:24;101595.44;;;20.04;81.51
71764;BME280;59602;52.142;5.408;2022-08-19T08:20:11;101593.38;;;20.08;80.20
71764;BME280;59602;52.142;5.408;2022-08-19T08:22:43;101597.22;;;20.15;79.88
71764;BME280;59602;52.142;5.408;2022-08-19T08:25:28;101593.59;;;20.18;80.04
71764;BME280;59602;52.142;5.408;2022-08-19T08:27:59;101597.56;;;20.17;79.21
71764;BME280;59602;52.142;5.408;2022-08-19T08:30:28;101605.69;;;20.24;79.42
71764;BME280;59602;52.142;5.408;2022-08-19T08:32:58;101605.13;;;20.32;78.95
71764;BME280;59602;52.142;5.408;2022-08-19T08:35:25;101605.72;;;20.40;78.77
71764;BME280;59602;52.142;5.408;2022-08-19T08:37:53;101616.19;;;20.49;78.08
71764;BME280;59602;52.142;5.408;2022-08-19T08:40:26;101614.44;;;20.59;77.71
71764;BME280;59602;52.142;5.408;2022-08-19T08:43:01;101616.16;;;20.69;77.22
71764;BME280;59602;52.142;5.408;2022-08-19T08:45:43;101619.00;;;20.65;76.57
71764;BME280;59602;52.142;5.408;2022-08-19T08:48:24;101614.69;;;20.64;76.95
71764;BME280;59602;52.142;5.408;2022-08-19T08:50:58;101613.38;;;20.69;75.91
71764;BME280;59602;52.142;5.408;2022-08-19T08:53:31;101619.97;;;20.75;75.54
71764;BME280;59602;52.142;5.408;2022-08-19T08:56:06;101609.78;;;20.88;76.49
71764;BME280;59602;52.142;5.408;2022-08-19T08:58:45;101612.19;;;21.03;75.55
71764;BME280;59602;52.142;5.408;2022-08-19T09:01:19;101613.03;;;21.16;75.26
71764;BME280;59602;52.142;5.408;2022-08-19T09:03:47;101610.00;;;21.27;75.11
71764;BME280;59602;52.142;5.408;2022-08-19T09:09:10;101605.91;;;21.31;73.24
71764;BME280;59602;52.142;5.408;2022-08-19T09:11:55;101615.09;;;21.28;74.39
71764;BME280;59602;52.142;5.408;2022-08-19T09:17:14;101619.94;;;21.41;73.39
71764;BME280;59602;52.142;5.408;2022-08-19T09:19:52;101617.84;;;21.45;73.08
71764;BME280;59602;52.142;5.408;2022-08-19T09:22:20;101619.75;;;21.48;73.82
71764;BME280;59602;52.142;5.408;2022-08-19T09:24:51;101620.00;;;21.53;72.63
71764;BME280;59602;52.142;5.408;2022-08-19T09:27:19;101626.09;;;21.61;73.74
71764;BME280;59602;52.142;5.408;2022-08-19T09:29:47;101613.28;;;21.67;72.59
71764;BME280;59602;52.142;5.408;2022-08-19T09:32:15;101617.50;;;21.72;71.91
71764;BME280;59602;52.142;5.408;2022-08-19T09:34:52;101620.88;;;21.80;72.00
71764;BME280;59602;52.142;5.408;2022-08-19T09:37:21;101620.88;;;21.80;72.70
71764;BME280;59602;52.142;5.408;2022-08-19T09:39:50;101620.31;;;21.85;71.87
71764;BME280;59602;52.142;5.408;2022-08-19T09:42:17;101627.44;;;21.86;71.96
71764;BME280;59602;52.142;5.408;2022-08-19T09:45:00;101634.50;;;21.87;71.80
71764;BME280;59602;52.142;5.408;2022-08-19T09:47:30;101616.34;;;21.86;71.02
71764;BME280;59602;52.142;5.408;2022-08-19T09:49:57;101620.22;;;21.88;70.70
71764;BME280;59602;52.142;5.408;2022-08-19T09:52:24;101621.91;;;21.98;70.94
71764;BME280;59602;52.142;5.408;2022-08-19T09:54:58;101616.41;;;22.11;68.56
71764;BME280;59602;52.142;5.408;2022-08-19T09:57:25;101618.41;;;22.24;70.44
71764;BME280;59602;52.142;5.408;2022-08-19T09:59:51;101621.97;;;22.37;70.09
71764;BME280;59602;52.142;5.408;2022-08-19T10:02:19;101630.53;;;22.43;70.05
71764;BME280;59602;52.142;5.408;2022-08-19T10:04:47;101623.75;;;22.44;69.31
71764;BME280;59602;52.142;5.408;2022-08-19T10:07:32;101612.34;;;22.54;69.50
71764;BME280;59602;52.142;5.408;2022-08-19T10:10:04;101621.22;;;22.49;69.17
71764;BME280;59602;52.142;5.408;2022-08-19T10:12:33;101621.22;;;22.62;68.62
71764;BME280;59602;52.142;5.408;2022-08-19T10:15:00;101624.88;;;22.72;68.50
71764;BME280;59602;52.142;5.408;2022-08-19T10:17:29;101623.09;;;22.65;66.98
71764;BME280;59602;52.142;5.408;2022-08-19T10:19:59;101625.63;;;22.72;67.80
71764;BME280;59602;52.142;5.408;2022-08-19T10:22:26;101618.09;;;22.86;67.63
71764;BME280;59602;52.142;5.408;2022-08-19T10:24:53;101616.44;;;23.01;66.52
71764;BME280;59602;52.142;5.408;2022-08-19T10:27:20;101608.06;;;23.14;64.09
71764;BME280;59602;52.142;5.408;2022-08-19T10:29:46;101612.25;;;23.31;65.97
71764;BME280;59602;52.142;5.408;2022-08-19T10:32:14;101609.88;;;23.42;66.02
71764;BME280;59602;52.142;5.408;2022-08-19T10:34:42;101610.91;;;23.36;65.13
71764;BME280;59602;52.142;5.408;2022-08-19T10:37:15;101620.00;;;23.36;65.12
71764;BME280;59602;52.142;5.408;2022-08-19T10:39:49;101617.66;;;23.35;64.51
71764;BME280;59602;52.142;5.408;2022-08-19T10:42:16;101611.34;;;23.34;65.10
71764;BME280;59602;52.142;5.408;2022-08-19T10:44:44;101609.34;;;23.35;66.15
71764;BME280;59602;52.142;5.408;2022-08-19T10:47:13;101605.53;;;23.41;65.74
71764;BME280;59602;52.142;5.408;2022-08-19T10:49:52;101606.72;;;23.53;65.44
71764;BME280;59602;52.142;5.408;2022-08-19T10:52:41;101607.22;;;23.61;64.52
71764;BME280;59602;52.142;5.408;2022-08-19T10:55:19;101608.66;;;23.66;64.92
71764;BME280;59602;52.142;5.408;2022-08-19T10:58:10;101604.34;;;23.65;65.89
71764;BME280;59602;52.142;5.408;2022-08-19T11:00:37;101600.44;;;23.62;66.02
71764;BME280;59602;52.142;5.408;2022-08-19T11:03:03;101604.00;;;23.62;66.92
71764;BME280;59602;52.142;5.408;2022-08-19T11:05:30;101594.31;;;23.67;66.79
71764;BME280;59602;52.142;5.408;2022-08-19T11:08:05;101593.38;;;23.83;65.60
71764;BME280;59602;52.142;5.408;2022-08-19T11:10:51;101594.56;;;24.04;64.08
71764;BME280;59602;52.142;5.408;2022-08-19T11:13:20;101606.34;;;24.17;64.66
71764;BME280;59602;52.142;5.408;2022-08-19T11:15:46;101597.44;;;24.22;63.19
71764;BME280;59602;52.142;5.408;2022-08-19T11:18:13;101589.66;;;24.08;63.32
71764;BME280;59602;52.142;5.408;2022-08-19T11:20:40;101586.69;;;24.02;64.49
71764;BME280;59602;52.142;5.408;2022-08-19T11:23:07;101585.38;;;24.16;65.34
71764;BME280;59602;52.142;5.408;2022-08-19T11:25:33;101590.03;;;24.29;64.29
71764;BME280;59602;52.142;5.408;2022-08-19T11:28:01;101588.22;;;24.35;63.88
71764;BME280;59602;52.142;5.408;2022-08-19T11:30:28;101581.69;;;24.29;64.92
71764;BME280;59602;52.142;5.408;2022-08-19T11:32:54;101587.56;;;24.31;64.35
71764;BME280;59602;52.142;5.408;2022-08-19T11:35:21;101581.38;;;24.27;64.70
71764;BME280;59602;52.142;5.408;2022-08-19T11:37:50;101570.91;;;24.31;65.56
71764;BME280;59602;52.142;5.408;2022-08-19T11:40:17;101577.75;;;24.39;65.87
71764;BME280;59602;52.142;5.408;2022-08-19T11:42:43;101573.59;;;24.43;64.97
71764;BME280;59602;52.142;5.408;2022-08-19T11:45:24;101578.56;;;24.49;65.21
71764;BME280;59602;52.142;5.408;2022-08-19T11:47:50;101571.16;;;24.55;62.32
71764;BME280;59602;52.142;5.408;2022-08-19T11:50:17;101580.75;;;24.54;64.07
71764;BME280;59602;52.142;5.408;2022-08-19T11:52:45;101576.28;;;24.56;63.35
71764;BME280;59602;52.142;5.408;2022-08-19T11:55:13;101580.63;;;24.67;63.35
71764;BME280;59602;52.142;5.408;2022-08-19T11:57:39;101577.84;;;24.76;63.40
71764;BME280;59602;52.142;5.408;2022-08-19T12:00:09;101575.69;;;24.80;62.39
71764;BME280;59602;52.142;5.408;2022-08-19T12:02:37;101574.19;;;24.88;62.52
71764;BME280;59602;52.142;5.408;2022-08-19T12:05:04;101576.34;;;24.84;61.94
71764;BME280;59602;52.142;5.408;2022-08-19T12:07:37;101571.69;;;24.72;62.39
71764;BME280;59602;52.142;5.408;2022-08-19T12:10:04;101574.59;;;24.59;63.71
71764;BME280;59602;52.142;5.408;2022-08-19T12:12:31;101571.78;;;24.50;63.52
71764;BME280;59602;52.142;5.408;2022-08-19T12:14:57;101587.47;;;24.43;65.43
71764;BME280;59602;52.142;5.408;2022-08-19T12:17:26;101597.19;;;24.39;65.09
71764;BME280;59602;52.142;5.408;2022-08-19T12:19:53;101595.75;;;24.25;65.52
71764;BME280;59602;52.142;5.408;2022-08-19T12:22:19;101588.59;;;24.15;66.81
71764;BME280;59602;52.142;5.408;2022-08-19T12:24:47;101593.19;;;24.09;65.97
71764;BME280;59602;52.142;5.408;2022-08-19T12:27:14;101587.03;;;24.05;66.22
71764;BME280;59602;52.142;5.408;2022-08-19T12:30:03;101587.28;;;23.97;66.59
71764;BME280;59602;52.142;5.408;2022-08-19T12:32:30;101587.75;;;23.96;67.62
71764;BME280;59602;52.142;5.408;2022-08-19T12:34:56;101589.88;;;23.92;68.24
71764;BME280;59602;52.142;5.408;2022-08-19T12:37:23;101591.09;;;23.91;68.76
71764;BME280;59602;52.142;5.408;2022-08-19T12:39:50;101591.47;;;23.80;69.21
71764;BME280;59602;52.142;5.408;2022-08-19T12:42:17;101590.94;;;23.72;68.58
71764;BME280;59602;52.142;5.408;2022-08-19T12:44:45;101591.88;;;23.69;70.11
71764;BME280;59602;52.142;5.408;2022-08-19T12:47:12;101598.97;;;23.70;69.58
71764;BME280;59602;52.142;5.408;2022-08-19T12:49:42;101590.31;;;23.68;69.68
71764;BME280;59602;52.142;5.408;2022-08-19T12:52:22;101586.31;;;23.69;69.05
71764;BME280;59602;52.142;5.408;2022-08-19T12:54:50;101585.72;;;23.74;70.24
71764;BME280;59602;52.142;5.408;2022-08-19T12:57:20;101587.66;;;23.87;69.88
71764;BME280;59602;52.142;5.408;2022-08-19T13:26:47;101584.81;;;23.55;74.58
71764;BME280;59602;52.142;5.408;2022-08-19T13:29:14;101589.53;;;23.46;71.86
71764;BME280;59602;52.142;5.408;2022-08-19T13:31:59;101578.81;;;23.35;77.77
71764;BME280;59602;52.142;5.408;2022-08-19T13:34:44;101577.63;;;23.23;78.32
71764;BME280;59602;52.142;5.408;2022-08-19T13:37:12;101582.78;;;23.12;79.16
71764;BME280;59602;52.142;5.408;2022-08-19T13:39:39;101567.16;;;23.05;78.94
71764;BME280;59602;52.142;5.408;2022-08-19T13:42:06;101579.34;;;23.08;75.66